Terminal Aerodrome Forecast
Issued by NWS Wichita, KS

Home | Current Version | Previous Version | Text Only | Print | Product List | Glossary On
Versions: 1 2 3 4 5 6 7 8 9 10 11 12 13
000
FTUS43 KICT 211139
TAFICT
TAF
KICT 211139Z 2112/2212 26005KT P6SM BKN120
     FM211300 32008KT P6SM BKN130
     FM211500 01014KT P6SM BKN120
     FM211800 02022G30KT P6SM SCT090
     FM220100 01015KT P6SM SKC
     FM220400 01010KT P6SM SKC
     FM220800 01005KT P6SM SKC=

USA.gov is the U.S. government's official web portal to all federal, state and local government web resources and services.